createdAt,value
2018-09-09T00:01:09.371Z,70.80
2018-09-09T00:03:37.922Z,71.19
2018-09-09T00:06:06.785Z,71.27
2018-09-09T00:08:35.096Z,71.29
2018-09-09T00:11:04.621Z,71.40
2018-09-09T00:13:34.441Z,71.28
2018-09-09T00:16:03.168Z,71.74
2018-09-09T00:18:32.193Z,71.52
2018-09-09T00:21:01.239Z,71.84
2018-09-09T00:23:29.537Z,71.83
2018-09-09T00:25:58.239Z,71.71
2018-09-09T00:28:27.160Z,72.49
2018-09-09T00:30:56.578Z,71.80
2018-09-09T00:33:25.292Z,71.98
2018-09-09T00:35:54.160Z,71.11
2018-09-09T00:38:22.568Z,71.37
2018-09-09T00:40:52.285Z,71.08
2018-09-09T00:43:21.628Z,70.42
2018-09-09T00:45:50.214Z,71.00
2018-09-09T00:48:18.680Z,71.56
2018-09-09T00:50:52.693Z,70.90
2018-09-09T00:53:26.778Z,71.32
2018-09-09T00:55:56.400Z,71.54
2018-09-09T00:58:24.944Z,72.13
2018-09-09T01:00:59.804Z,71.68
2018-09-09T01:03:28.762Z,71.95
2018-09-09T01:05:57.740Z,72.12
2018-09-09T01:08:26.770Z,72.01
2018-09-09T01:10:56.451Z,71.78
2018-09-09T01:13:25.068Z,71.99
2018-09-09T01:15:53.678Z,73.14
2018-09-09T01:18:21.974Z,73.17
2018-09-09T01:20:51.194Z,72.82
2018-09-09T01:23:19.584Z,73.06
2018-09-09T01:25:49.733Z,73.56
2018-09-09T01:28:19.384Z,73.95
2018-09-09T01:30:48.494Z,74.33
2018-09-09T01:33:16.990Z,74.17
2018-09-09T01:35:46.086Z,74.45
2018-09-09T01:38:16.005Z,74.89
2018-09-09T01:40:44.323Z,74.52
2018-09-09T01:43:12.642Z,74.42
2018-09-09T01:45:41.715Z,74.58
2018-09-09T01:48:10.031Z,75.50
2018-09-09T01:50:38.430Z,75.95
2018-09-09T01:53:06.968Z,76.22
2018-09-09T01:55:36.047Z,76.36
2018-09-09T01:58:05.338Z,76.46
2018-09-09T02:00:35.057Z,76.18
2018-09-09T02:03:05.934Z,76.20
2018-09-09T02:05:35.385Z,76.28
2018-09-09T02:08:03.812Z,76.21
2018-09-09T02:10:32.348Z,75.97
2018-09-09T02:13:01.652Z,75.50
2018-09-09T02:15:31.093Z,75.32
2018-09-09T02:17:59.999Z,75.20
2018-09-09T02:20:29.671Z,74.99
2018-09-09T02:23:00.889Z,74.69
2018-09-09T02:25:30.284Z,74.86
2018-09-09T02:28:00.246Z,75.20
2018-09-09T02:30:29.823Z,75.34
2018-09-09T02:32:58.190Z,74.93
2018-09-09T02:35:26.752Z,75.44
2018-09-09T02:37:56.073Z,75.69
2018-09-09T02:40:24.446Z,76.03
2018-09-09T02:42:54.403Z,75.86
2018-09-09T02:45:24.776Z,75.93
2018-09-09T02:47:53.559Z,76.56
2018-09-09T02:50:23.532Z,76.07
2018-09-09T02:52:51.875Z,76.60
2018-09-09T02:55:20.937Z,75.77
2018-09-09T02:57:49.238Z,76.33
2018-09-09T03:00:17.597Z,76.78
2018-09-09T03:02:47.306Z,75.67
2018-09-09T03:05:17.280Z,75.64
2018-09-09T03:07:46.448Z,75.67
2018-09-09T03:10:16.201Z,76.37
2018-09-09T03:12:45.576Z,76.72
2018-09-09T03:15:14.234Z,77.48
2018-09-09T03:17:42.540Z,76.66
2018-09-09T03:20:11.012Z,77.39
2018-09-09T03:22:39.304Z,77.16
2018-09-09T03:25:08.325Z,77.67
2018-09-09T03:27:37.497Z,77.21
2018-09-09T03:30:06.635Z,77.68
2018-09-09T03:32:34.907Z,77.55
2018-09-09T03:35:03.850Z,78.15
2018-09-09T03:37:32.274Z,77.69
2018-09-09T03:40:01.824Z,77.89
2018-09-09T03:42:30.671Z,77.94
2018-09-09T03:44:59.016Z,78.18
2018-09-09T03:47:27.622Z,78.11
2018-09-09T03:49:56.676Z,77.98
2018-09-09T03:52:25.391Z,77.74
2018-09-09T03:54:54.147Z,78.44
2018-09-09T03:57:22.449Z,78.26
2018-09-09T03:59:50.953Z,78.23
2018-09-09T04:02:20.374Z,78.05
2018-09-09T04:04:48.752Z,78.29
2018-09-09T04:07:17.227Z,78.07
2018-09-09T04:09:46.491Z,79.07
2018-09-09T04:12:15.548Z,78.67
2018-09-09T04:14:45.542Z,79.14
2018-09-09T04:17:14.268Z,79.11
2018-09-09T04:19:43.263Z,79.73
2018-09-09T04:22:12.084Z,79.47
2018-09-09T04:24:41.166Z,79.75
2018-09-09T04:27:09.844Z,79.83
2018-09-09T04:29:38.612Z,79.99
2018-09-09T04:32:10.505Z,80.02
2018-09-09T04:34:38.839Z,80.23
2018-09-09T04:37:07.855Z,80.87
2018-09-09T04:39:36.127Z,81.00
2018-09-09T04:42:12.357Z,81.39
2018-09-09T04:44:40.881Z,82.31
2018-09-09T04:47:09.705Z,82.05
2018-09-09T04:49:38.335Z,82.47
2018-09-09T04:52:07.446Z,82.80
2018-09-09T04:54:35.675Z,82.38
2018-09-09T04:57:03.941Z,81.99
2018-09-09T04:59:32.630Z,82.26
2018-09-09T05:02:00.952Z,81.51
2018-09-09T05:04:29.826Z,82.12
2018-09-09T05:06:58.169Z,81.98
2018-09-09T05:09:28.403Z,81.30
2018-09-09T05:11:57.582Z,81.86
2018-09-09T05:14:27.296Z,81.22
2018-09-09T05:16:55.654Z,81.12
2018-09-09T05:19:25.457Z,80.56
2018-09-09T05:21:54.651Z,80.36
2018-09-09T05:24:23.256Z,80.95
2018-09-09T05:26:52.846Z,80.89
2018-09-09T05:29:22.822Z,81.42
2018-09-09T05:31:51.546Z,80.66
2018-09-09T05:34:20.880Z,80.04
2018-09-09T05:36:50.036Z,79.61
2018-09-09T05:39:19.164Z,79.33
2018-09-09T05:41:47.759Z,78.62
2018-09-09T05:44:16.646Z,77.99
2018-09-09T05:46:46.709Z,78.28
2018-09-09T05:49:16.415Z,77.69
2018-09-09T05:51:46.885Z,77.40
2018-09-09T05:54:16.393Z,76.94
2018-09-09T05:56:47.427Z,76.50
2018-09-09T05:59:16.464Z,76.03
2018-09-09T06:01:45.312Z,76.90
2018-09-09T06:04:13.691Z,76.89
2018-09-09T06:06:42.771Z,76.42
2018-09-09T06:09:12.026Z,75.81
2018-09-09T06:11:41.245Z,75.12
2018-09-09T06:14:09.660Z,75.29
2018-09-09T06:16:38.169Z,74.64
2018-09-09T06:19:08.661Z,73.78
2018-09-09T06:21:37.093Z,73.34
2018-09-09T06:24:06.013Z,73.27
2018-09-09T06:26:34.359Z,72.25
2018-09-09T06:29:02.962Z,71.36
2018-09-09T06:31:31.932Z,70.05
2018-09-09T06:34:01.046Z,69.96
2018-09-09T06:36:29.310Z,69.95
2018-09-09T06:38:58.406Z,68.88
2018-09-09T06:41:26.716Z,68.07
2018-09-09T06:43:55.776Z,68.22
2018-09-09T06:46:24.131Z,67.47
2018-09-09T06:48:52.684Z,67.10
2018-09-09T06:51:22.351Z,66.95
2018-09-09T06:53:51.465Z,66.23
2018-09-09T06:56:20.260Z,66.03
2018-09-09T06:58:48.480Z,66.62
2018-09-09T07:01:17.188Z,66.30
2018-09-09T07:03:45.992Z,64.69
2018-09-09T07:06:14.259Z,65.92
2018-09-09T07:08:42.486Z,66.34
2018-09-09T07:11:11.109Z,66.26
2018-09-09T07:13:40.061Z,65.71
2018-09-09T07:16:08.436Z,65.67
2018-09-09T07:18:36.860Z,65.37
2018-09-09T07:21:06.310Z,65.90
2018-09-09T07:23:34.993Z,64.41
2018-09-09T07:26:05.191Z,63.73
2018-09-09T07:28:33.554Z,63.74
2018-09-09T07:31:02.072Z,62.34
2018-09-09T07:33:31.433Z,62.52
2018-09-09T07:36:01.218Z,61.52
2018-09-09T07:38:30.346Z,61.24
2018-09-09T07:40:59.175Z,62.06
2018-09-09T07:43:28.590Z,60.34
2018-09-09T07:45:58.068Z,60.90
2018-09-09T07:48:27.652Z,62.05
2018-09-09T07:50:56.310Z,60.65
2018-09-09T07:53:26.606Z,60.13
2018-09-09T07:55:55.146Z,59.87
2018-09-09T07:58:23.500Z,59.69
2018-09-09T08:00:52.485Z,58.90
2018-09-09T08:03:21.488Z,57.95
2018-09-09T08:05:49.814Z,57.89
2018-09-09T08:08:18.492Z,57.70
2018-09-09T08:10:47.087Z,58.46
2018-09-09T08:13:16.185Z,57.97
2018-09-09T08:15:44.877Z,57.46
2018-09-09T08:18:13.332Z,57.73
2018-09-09T08:20:41.597Z,57.56
2018-09-09T08:23:11.282Z,57.26
2018-09-09T08:25:39.561Z,56.35
2018-09-09T08:28:09.069Z,55.65
2018-09-09T08:30:37.692Z,55.65
2018-09-09T08:33:06.416Z,55.08
2018-09-09T08:35:35.641Z,55.02
2018-09-09T08:38:04.244Z,55.56
2018-09-09T08:40:32.540Z,55.09
2018-09-09T08:43:01.696Z,55.10
2018-09-09T08:45:30.693Z,54.58
2018-09-09T08:47:59.230Z,54.91
2018-09-09T08:50:27.720Z,55.56
2018-09-09T08:52:56.573Z,55.02
2018-09-09T08:55:24.993Z,53.68
2018-09-09T08:57:53.873Z,53.18
2018-09-09T09:00:22.744Z,52.17
2018-09-09T09:02:51.930Z,51.51
2018-09-09T09:05:21.108Z,52.09
2018-09-09T09:07:49.781Z,51.63
2018-09-09T09:10:18.692Z,50.08
2018-09-09T09:12:47.666Z,49.41
2018-09-09T09:15:16.056Z,48.82
2018-09-09T09:17:44.998Z,48.63
2018-09-09T09:20:13.380Z,48.30
2018-09-09T09:22:42.575Z,48.91
2018-09-09T09:25:11.072Z,48.76
2018-09-09T09:27:39.573Z,47.75
2018-09-09T09:30:09.234Z,46.88
2018-09-09T09:32:39.468Z,46.97
2018-09-09T09:35:08.703Z,45.59
2018-09-09T09:37:37.383Z,46.36
2018-09-09T09:40:07.431Z,45.12
2018-09-09T09:42:36.447Z,44.32
2018-09-09T09:45:05.235Z,43.79
2018-09-09T09:47:33.718Z,42.07
2018-09-09T09:50:02.071Z,41.19
2018-09-09T09:52:31.210Z,41.48
2018-09-09T09:55:00.479Z,40.03
2018-09-09T09:57:29.188Z,39.09
2018-09-09T09:59:58.429Z,37.71
2018-09-09T10:02:28.067Z,38.56
2018-09-09T10:04:57.385Z,40.02
2018-09-09T10:07:26.553Z,39.79
2018-09-09T10:09:54.872Z,39.78
2018-09-09T10:12:26.351Z,38.66
2018-09-09T10:14:59.343Z,39.41
2018-09-09T10:17:30.912Z,38.93
2018-09-09T10:20:01.367Z,37.41
2018-09-09T10:22:32.049Z,38.01
2018-09-09T10:25:01.746Z,36.72
2018-09-09T10:27:32.326Z,34.92
2018-09-09T10:30:02.513Z,35.30
2018-09-09T10:32:33.011Z,35.80
2018-09-09T10:35:01.456Z,36.74
2018-09-09T10:37:29.934Z,36.71
2018-09-09T10:39:59.780Z,36.64
2018-09-09T10:42:29.127Z,37.80
2018-09-09T10:44:57.640Z,36.06
2018-09-09T10:47:26.162Z,35.40
2018-09-09T10:49:55.682Z,36.23
2018-09-09T10:52:24.050Z,35.86
2018-09-09T10:54:52.794Z,35.80
2018-09-09T10:57:21.925Z,34.12
2018-09-09T10:59:53.931Z,34.38
2018-09-09T11:02:23.090Z,35.05
2018-09-09T11:04:52.519Z,34.63
2018-09-09T11:07:22.225Z,35.40
2018-09-09T11:09:50.537Z,36.79
2018-09-09T11:12:23.403Z,36.24
2018-09-09T11:14:52.072Z,35.77
2018-09-09T11:17:21.145Z,35.15
2018-09-09T11:19:49.834Z,35.49
2018-09-09T11:22:18.561Z,35.31
2018-09-09T11:24:46.797Z,36.49
2018-09-09T11:27:15.164Z,36.35
2018-09-09T11:29:43.784Z,35.74
2018-09-09T11:32:13.206Z,35.69
2018-09-09T11:34:43.600Z,35.19
2018-09-09T11:37:13.023Z,34.71
2018-09-09T11:39:42.613Z,34.63
2018-09-09T11:42:11.227Z,34.66
2018-09-09T11:44:40.021Z,34.39
2018-09-09T11:47:09.003Z,34.85
2018-09-09T11:49:38.896Z,33.66
2018-09-09T11:52:08.092Z,34.30
2018-09-09T11:54:37.628Z,33.79
2018-09-09T11:57:06.464Z,32.96
2018-09-09T11:59:35.146Z,33.14
2018-09-09T12:02:05.009Z,32.95
2018-09-09T12:04:33.365Z,32.89
2018-09-09T12:07:01.841Z,32.48
2018-09-09T12:09:30.346Z,33.07
2018-09-09T12:12:00.820Z,33.01
2018-09-09T12:14:29.220Z,32.83
2018-09-09T12:16:58.565Z,33.13
2018-09-09T12:19:27.841Z,32.37
2018-09-09T12:21:56.301Z,31.25
2018-09-09T12:24:25.219Z,31.13
2018-09-09T12:26:55.916Z,31.47
2018-09-09T12:29:24.149Z,30.35
2018-09-09T12:31:52.377Z,31.58
2018-09-09T12:34:20.699Z,31.15
2018-09-09T12:36:49.145Z,30.89
2018-09-09T12:39:18.036Z,30.10
2018-09-09T12:41:46.605Z,29.77
2018-09-09T12:44:20.623Z,30.55
2018-09-09T12:46:55.766Z,30.40
2018-09-09T12:49:24.155Z,30.71
2018-09-09T12:51:52.907Z,29.90
2018-09-09T12:54:22.124Z,29.30
2018-09-09T12:56:50.779Z,29.73
2018-09-09T12:59:19.381Z,30.15
2018-09-09T13:01:47.625Z,29.67
2018-09-09T13:04:16.784Z,29.61
2018-09-09T13:06:45.133Z,28.72
2018-09-09T13:09:13.615Z,29.10
2018-09-09T13:11:43.387Z,28.43
2018-09-09T13:14:13.753Z,27.41
2018-09-09T13:16:44.709Z,27.58
2018-09-09T13:19:13.041Z,24.96
2018-09-09T13:21:45.647Z,23.34
2018-09-09T13:24:14.997Z,24.07
2018-09-09T13:26:43.700Z,22.88
2018-09-09T13:29:14.238Z,22.67
2018-09-09T13:31:44.091Z,20.02
2018-09-09T13:34:12.899Z,19.95
2018-09-09T13:36:41.769Z,18.63
2018-09-09T13:39:10.491Z,20.26
2018-09-09T13:41:39.087Z,19.42
2018-09-09T13:44:08.809Z,19.45
2018-09-09T13:46:37.324Z,18.62
2018-09-09T13:49:08.809Z,16.88
2018-09-09T13:51:38.686Z,17.48
2018-09-09T13:54:07.276Z,17.65
2018-09-09T13:56:36.207Z,18.21
2018-09-09T13:59:05.687Z,19.29
2018-09-09T14:01:34.239Z,18.98
2018-09-09T14:04:04.916Z,18.75
2018-09-09T14:06:33.427Z,17.75
2018-09-09T14:09:04.176Z,16.69
2018-09-09T14:11:32.706Z,18.24
2018-09-09T14:14:01.972Z,15.89
2018-09-09T14:16:30.305Z,16.79
2018-09-09T14:18:59.404Z,17.50
2018-09-09T14:21:28.014Z,15.46
2018-09-09T14:23:56.935Z,15.44
2018-09-09T14:26:26.900Z,16.38
2018-09-09T14:28:56.080Z,16.50
2018-09-09T14:31:24.694Z,16.47
2018-09-09T14:33:54.182Z,16.10
2018-09-09T14:36:22.715Z,14.13
2018-09-09T14:38:52.079Z,15.25
2018-09-09T14:41:22.112Z,15.39
2018-09-09T14:43:51.961Z,15.51
2018-09-09T14:46:23.389Z,16.24
2018-09-09T14:48:53.440Z,15.63
2018-09-09T14:51:22.355Z,15.65
2018-09-09T14:53:53.151Z,15.83
2018-09-09T14:56:21.889Z,15.31
2018-09-09T14:58:50.615Z,15.37
2018-09-09T15:01:19.065Z,13.25
2018-09-09T15:03:47.990Z,16.72
2018-09-09T15:06:17.542Z,15.89
2018-09-09T15:08:46.931Z,17.09
2018-09-09T15:11:16.317Z,16.11
2018-09-09T15:13:44.958Z,14.38
2018-09-09T15:16:13.909Z,13.42
2018-09-09T15:18:44.057Z,12.58
2018-09-09T15:21:12.455Z,13.69
2018-09-09T15:23:41.003Z,13.66
2018-09-09T15:26:09.983Z,14.27
2018-09-09T15:28:38.618Z,14.28
2018-09-09T15:31:07.174Z,15.10
2018-09-09T15:33:36.394Z,13.98
2018-09-09T15:36:04.844Z,15.32
2018-09-09T15:38:33.731Z,16.30
2018-09-09T15:41:02.684Z,15.64
2018-09-09T15:43:31.708Z,15.40
2018-09-09T15:46:00.032Z,15.06
2018-09-09T15:48:29.025Z,15.21
2018-09-09T15:50:57.316Z,15.50
2018-09-09T15:53:25.957Z,16.23
2018-09-09T15:55:54.224Z,14.38
2018-09-09T15:58:22.585Z,13.83
2018-09-09T16:00:51.177Z,13.87
2018-09-09T16:03:19.746Z,14.45
2018-09-09T16:05:48.334Z,14.05
2018-09-09T16:08:17.926Z,15.47
2018-09-09T16:10:47.806Z,14.62
2018-09-09T16:13:16.500Z,14.51
2018-09-09T16:15:44.743Z,16.38
2018-09-09T16:18:13.201Z,14.35
2018-09-09T16:20:42.098Z,15.51
2018-09-09T16:23:11.176Z,16.07
2018-09-09T16:25:39.514Z,17.15
2018-09-09T16:28:08.945Z,17.52
2018-09-09T16:30:39.184Z,17.96
2018-09-09T16:33:07.841Z,20.25
2018-09-09T16:35:36.498Z,21.08
2018-09-09T16:38:05.444Z,19.76
2018-09-09T16:40:34.602Z,19.50
2018-09-09T16:43:02.977Z,19.09
2018-09-09T16:45:31.838Z,19.52
2018-09-09T16:48:01.734Z,18.83
2018-09-09T16:50:30.990Z,17.86
2018-09-09T16:52:59.328Z,19.64
2018-09-09T16:55:27.679Z,18.72
2018-09-09T16:57:56.136Z,21.50
2018-09-09T17:00:24.660Z,24.25
2018-09-09T17:02:53.711Z,26.03
2018-09-09T17:05:22.489Z,27.94
2018-09-09T17:07:51.090Z,30.01
2018-09-09T17:10:19.794Z,31.45
2018-09-09T17:12:48.152Z,31.96
2018-09-09T17:15:16.806Z,32.71
2018-09-09T17:17:45.889Z,33.23
2018-09-09T17:20:15.000Z,33.67
2018-09-09T17:22:44.764Z,34.47
2018-09-09T17:25:13.316Z,34.50
2018-09-09T17:27:42.243Z,35.06
2018-09-09T17:30:10.552Z,35.43
2018-09-09T17:32:39.171Z,36.68
2018-09-09T17:35:07.466Z,37.19
2018-09-09T17:37:35.904Z,38.36
2018-09-09T17:40:04.525Z,38.51
2018-09-09T17:42:33.818Z,38.64
2018-09-09T17:45:02.063Z,39.05
2018-09-09T17:47:30.574Z,38.99
2018-09-09T17:50:00.720Z,39.49
2018-09-09T17:52:30.611Z,40.03
2018-09-09T17:54:59.721Z,40.88
2018-09-09T17:57:29.361Z,41.75
2018-09-09T17:59:58.932Z,41.87
2018-09-09T18:02:28.202Z,42.05
2018-09-09T18:04:57.147Z,42.65
2018-09-09T18:07:25.642Z,43.23
2018-09-09T18:09:54.309Z,43.40
2018-09-09T18:12:23.658Z,43.57
2018-09-09T18:14:51.960Z,43.69
2018-09-09T18:17:21.587Z,44.09
2018-09-09T18:19:49.839Z,44.20
2018-09-09T18:22:19.703Z,44.56
2018-09-09T18:24:49.052Z,44.94
2018-09-09T18:27:18.093Z,44.92
2018-09-09T18:29:47.562Z,44.94
2018-09-09T18:32:16.980Z,45.08
2018-09-09T18:34:46.060Z,45.27
2018-09-09T18:37:16.789Z,45.12
2018-09-09T18:39:45.244Z,46.08
2018-09-09T18:42:14.497Z,46.61
2018-09-09T18:44:45.006Z,46.99
2018-09-09T18:47:15.106Z,47.38
2018-09-09T18:49:43.986Z,48.16
2018-09-09T18:52:13.132Z,48.41
2018-09-09T18:54:42.612Z,48.78
2018-09-09T18:57:12.305Z,48.84
2018-09-09T18:59:41.012Z,47.74
2018-09-09T19:02:09.507Z,47.67
2018-09-09T19:04:38.819Z,48.18
2018-09-09T19:07:07.476Z,47.76
2018-09-09T19:09:36.049Z,48.13
2018-09-09T19:12:06.678Z,48.16
2018-09-09T19:14:35.296Z,49.30
2018-09-09T19:17:04.901Z,49.19
2018-09-09T19:19:33.213Z,50.02
2018-09-09T19:22:01.621Z,51.32
2018-09-09T19:24:30.157Z,51.69
2018-09-09T19:26:59.100Z,51.33
2018-09-09T19:29:27.386Z,51.35
2018-09-09T19:31:56.236Z,51.68
2018-09-09T19:34:26.797Z,52.47
2018-09-09T19:36:55.966Z,52.73
2018-09-09T19:39:24.212Z,51.66
2018-09-09T19:41:54.949Z,52.61
2018-09-09T19:44:24.008Z,53.16
2018-09-09T19:46:52.416Z,53.16
2018-09-09T19:49:21.833Z,53.27
2018-09-09T19:51:50.939Z,54.66
2018-09-09T19:54:19.482Z,54.83
2018-09-09T19:56:48.769Z,54.07
2018-09-09T19:59:17.629Z,54.23
2018-09-09T20:01:45.960Z,55.09
2018-09-09T20:04:14.262Z,55.14
2018-09-09T20:06:43.935Z,54.84
2018-09-09T20:09:14.712Z,54.63
2018-09-09T20:11:44.017Z,54.54
2018-09-09T20:14:15.452Z,54.56
2018-09-09T20:16:44.501Z,54.61
2018-09-09T20:19:13.852Z,54.68
2018-09-09T20:21:43.624Z,56.23
2018-09-09T20:24:13.587Z,56.25
2018-09-09T20:26:42.227Z,56.39
2018-09-09T20:29:11.083Z,55.83
2018-09-09T20:31:39.593Z,55.93
2018-09-09T20:34:08.243Z,56.30
2018-09-09T20:36:37.699Z,56.32
2018-09-09T20:39:09.923Z,56.73
2018-09-09T20:41:38.536Z,56.90
2018-09-09T20:44:07.293Z,57.05
2018-09-09T20:46:36.260Z,58.74
2018-09-09T20:49:05.774Z,58.92
2018-09-09T20:51:34.928Z,59.44
2018-09-09T20:54:03.444Z,59.30
2018-09-09T20:56:31.728Z,59.57
2018-09-09T20:59:00.304Z,60.52
2018-09-09T21:01:29.599Z,61.73
2018-09-09T21:03:59.041Z,62.03
2018-09-09T21:06:27.883Z,61.53
2018-09-09T21:08:57.837Z,61.33
2018-09-09T21:11:29.987Z,60.68
2018-09-09T21:13:59.470Z,61.01
2018-09-09T21:16:27.800Z,60.69
2018-09-09T21:18:56.848Z,61.27
2018-09-09T21:21:26.769Z,60.90
2018-09-09T21:23:55.812Z,61.68
2018-09-09T21:26:24.974Z,62.34
2018-09-09T21:28:58.310Z,62.77
2018-09-09T21:31:27.258Z,62.89
2018-09-09T21:33:55.556Z,63.18
2018-09-09T21:36:24.518Z,63.70
2018-09-09T21:38:53.524Z,63.68
2018-09-09T21:41:22.368Z,64.48
2018-09-09T21:43:51.024Z,64.62
2018-09-09T21:46:21.575Z,65.17
2018-09-09T21:48:51.507Z,65.57
2018-09-09T21:51:20.816Z,65.51
2018-09-09T21:53:49.951Z,65.26
2018-09-09T21:56:20.401Z,64.92
2018-09-09T21:58:48.864Z,65.44
2018-09-09T22:01:23.660Z,64.91
2018-09-09T22:03:58.099Z,65.39
2018-09-09T22:06:27.860Z,65.69
2018-09-09T22:08:57.861Z,65.44
2018-09-09T22:11:28.225Z,65.35
2018-09-09T22:13:56.482Z,66.37
2018-09-09T22:16:25.455Z,66.88
2018-09-09T22:18:54.227Z,67.59
2018-09-09T22:21:23.316Z,67.72
2018-09-09T22:23:51.655Z,68.25
2018-09-09T22:26:22.240Z,68.82
2018-09-09T22:28:51.184Z,68.92
2018-09-09T22:31:19.905Z,69.05
2018-09-09T22:33:48.315Z,69.04
2018-09-09T22:36:16.601Z,69.07
2018-09-09T22:38:45.183Z,68.67
2018-09-09T22:41:13.400Z,69.20
2018-09-09T22:43:42.894Z,69.07
2018-09-09T22:46:11.089Z,68.74
2018-09-09T22:48:40.583Z,68.90
2018-09-09T22:51:09.184Z,68.63
2018-09-09T22:53:38.006Z,68.89
2018-09-09T22:56:06.594Z,68.76
2018-09-09T22:58:34.952Z,68.57
2018-09-09T23:01:04.238Z,68.61
2018-09-09T23:03:32.999Z,69.12
2018-09-09T23:06:02.483Z,69.26
2018-09-09T23:08:31.714Z,68.59
2018-09-09T23:11:00.280Z,67.78
2018-09-09T23:13:30.273Z,67.68
2018-09-09T23:15:58.757Z,68.94
2018-09-09T23:18:28.680Z,68.66
2018-09-09T23:20:58.467Z,69.11
2018-09-09T23:23:27.373Z,69.20
2018-09-09T23:25:55.735Z,68.97
2018-09-09T23:28:25.237Z,69.97
2018-09-09T23:30:54.683Z,70.98
2018-09-09T23:33:24.304Z,71.79
2018-09-09T23:35:54.965Z,71.70
2018-09-09T23:38:23.405Z,72.25
2018-09-09T23:40:52.552Z,72.30
2018-09-09T23:43:23.160Z,72.53
2018-09-09T23:45:52.570Z,72.73
2018-09-09T23:48:21.735Z,72.78
2018-09-09T23:50:50.384Z,72.38
2018-09-09T23:53:19.658Z,72.78
2018-09-09T23:55:48.523Z,73.15
2018-09-09T23:58:17.616Z,72.94
